Time;durP1;ratioP1;P1;durP2;ratioP2;P2;SDS_P1;SDS_P2;PMS_P1;PMS_P2;Temp;Humidity;BMP_temperature;BMP_pressure;BME280_temperature;BME280_humidity;BME280_pressure;Samples;Min_cycle;Max_cycle;Signal;HPM_P1;HPM_P2
2022/05/02 00:00:09;;;;;;;10.77;9.77;;;7.60;99.90;;;;;;6273925;22;20182;-70
2022/05/02 00:02:36;;;;;;;11.18;10.13;;;7.60;99.90;;;;;;6274416;22;20180;-70
2022/05/02 00:05:03;;;;;;;11.07;9.98;;;7.60;99.90;;;;;;6273912;22;20195;-71
2022/05/02 00:07:31;;;;;;;10.68;9.32;;;7.50;99.90;;;;;;6273887;22;20303;-71
2022/05/02 00:09:58;;;;;;;11.38;10.18;;;7.40;99.90;;;;;;6273162;22;20172;-70
2022/05/02 00:12:25;;;;;;;12.63;10.18;;;7.40;99.90;;;;;;6273754;22;20180;-70
2022/05/02 00:14:51;;;;;;;9.52;8.63;;;7.40;99.90;;;;;;6274110;22;20179;-71
2022/05/02 00:17:18;;;;;;;11.55;10.35;;;7.40;99.90;;;;;;6273717;22;20176;-71
2022/05/02 00:19:45;;;;;;;11.05;9.93;;;7.30;99.90;;;;;;6273070;22;20176;-71
2022/05/02 00:22:11;;;;;;;12.68;9.98;;;7.30;99.90;;;;;;6274035;22;20515;-71
2022/05/02 00:24:39;;;;;;;10.65;9.50;;;7.30;99.90;;;;;;6274063;22;20196;-72
2022/05/02 00:27:07;;;;;;;11.43;10.20;;;7.30;99.90;;;;;;6273287;22;20179;-72
2022/05/02 00:29:34;;;;;;;12.30;11.00;;;7.30;99.90;;;;;;6272993;22;20176;-72
2022/05/02 00:32:01;;;;;;;10.30;9.20;;;7.30;99.90;;;;;;6273684;22;20175;-71
2022/05/02 00:34:28;;;;;;;11.35;10.15;;;7.30;99.90;;;;;;6274013;22;20263;-71
2022/05/02 00:36:55;;;;;;;11.75;10.55;;;7.30;99.90;;;;;;6273643;22;20175;-71
2022/05/02 00:39:21;;;;;;;11.55;10.45;;;7.20;99.90;;;;;;6273103;22;20207;-70
2022/05/02 00:41:49;;;;;;;11.45;10.30;;;7.20;99.90;;;;;;6273768;22;20489;-72
2022/05/02 00:44:16;;;;;;;12.13;10.85;;;7.20;99.90;;;;;;6273701;22;20194;-71
2022/05/02 00:46:43;;;;;;;13.18;10.55;;;7.10;99.90;;;;;;6273342;22;20698;-70
2022/05/02 00:49:10;;;;;;;13.25;10.35;;;7.10;99.90;;;;;;6272595;22;20195;-71
2022/05/02 00:51:37;;;;;;;11.40;10.02;;;7.00;99.90;;;;;;6273903;22;20511;-70
2022/05/02 00:54:04;;;;;;;11.90;10.70;;;7.00;99.90;;;;;;6273661;22;20175;-72
2022/05/02 00:56:30;;;;;;;10.77;9.65;;;7.00;99.90;;;;;;6273395;22;20636;-72
2022/05/02 00:59:00;;;;;;;12.95;10.65;;;6.90;99.90;;;;;;6272754;22;20207;-71
2022/05/02 01:01:27;;;;;;;12.40;11.10;;;6.90;99.90;;;;;;6273652;22;20176;-72
2022/05/02 01:03:55;;;;;;;12.82;11.20;;;6.90;99.90;;;;;;6273357;22;20195;-72
2022/05/02 01:09:07;;;;;;;13.88;11.10;;;6.80;99.90;;;;;;6272807;22;20270;-71
2022/05/02 01:11:34;;;;;;;13.10;11.30;;;6.80;99.90;;;;;;6273822;22;20229;-72
2022/05/02 01:14:02;;;;;;;11.75;10.55;;;6.80;99.90;;;;;;6273549;22;20179;-72
2022/05/02 01:16:30;;;;;;;11.98;10.77;;;6.70;99.90;;;;;;6273671;22;20211;-73
2022/05/02 01:18:58;;;;;;;12.52;10.85;;;6.70;99.90;;;;;;6272600;22;20196;-73
2022/05/02 01:21:29;;;;;;;11.85;10.55;;;6.70;99.90;;;;;;6273613;22;20172;-72
2022/05/02 01:23:58;;;;;;;11.95;10.75;;;6.70;99.90;;;;;;6273049;22;20662;-71
2022/05/02 01:26:25;;;;;;;12.90;11.57;;;6.70;99.90;;;;;;6273361;22;20180;-71
2022/05/02 01:28:53;;;;;;;14.57;12.13;;;6.70;99.90;;;;;;6272724;22;20198;-71
2022/05/02 01:31:20;;;;;;;12.45;11.25;;;6.60;99.90;;;;;;6273475;22;20511;-71
2022/05/02 01:33:48;;;;;;;13.77;11.45;;;6.60;99.90;;;;;;6273463;22;20199;-72
2022/05/02 01:36:15;;;;;;;15.25;12.90;;;6.60;99.90;;;;;;6273506;22;20187;-71
2022/05/02 01:38:43;;;;;;;12.95;10.55;;;6.60;99.90;;;;;;6274268;22;20191;-72
2022/05/02 01:41:10;;;;;;;13.05;11.73;;;6.60;99.90;;;;;;6275466;22;20172;-72
2022/05/02 01:43:38;;;;;;;11.60;10.48;;;6.60;99.90;;;;;;6274855;22;20659;-72
2022/05/02 01:46:06;;;;;;;14.77;12.07;;;6.50;99.90;;;;;;6275239;22;20603;-71
2022/05/02 01:48:33;;;;;;;12.27;10.98;;;6.50;99.90;;;;;;6274644;22;20250;-71
2022/05/02 01:51:00;;;;;;;13.23;11.93;;;6.50;99.90;;;;;;6276311;22;20195;-73
2022/05/02 01:53:27;;;;;;;13.13;11.32;;;6.50;99.90;;;;;;6277368;22;20508;-72
2022/05/02 01:55:55;;;;;;;13.45;12.10;;;6.50;99.90;;;;;;6275135;22;20628;-72
2022/05/02 01:58:22;;;;;;;13.45;11.90;;;6.50;99.90;;;;;;6274607;22;20203;-73
2022/05/02 02:00:49;;;;;;;12.15;10.95;;;6.50;99.90;;;;;;6274999;22;20182;-72
2022/05/02 02:03:16;;;;;;;13.57;12.23;;;6.60;99.90;;;;;;6275357;22;20178;-72
2022/05/02 02:05:51;;;;;;;13.13;10.77;;;6.60;99.90;;;;;;6274912;22;20196;-72
2022/05/02 02:08:21;;;;;;;18.70;12.85;;;6.50;99.90;;;;;;6274068;22;20199;-71
2022/05/02 02:10:48;;;;;;;13.38;11.63;;;6.50;99.90;;;;;;6277075;22;20175;-73
2022/05/02 02:13:17;;;;;;;15.45;12.85;;;6.50;99.90;;;;;;6275285;22;20172;-72
2022/05/02 02:15:44;;;;;;;15.52;13.90;;;6.50;99.90;;;;;;6271678;22;20572;-92
2022/05/02 02:18:11;;;;;;;15.90;13.90;;;6.50;99.90;;;;;;6277044;22;20156;-91
2022/05/02 02:20:38;;;;;;;13.93;12.52;;;6.60;99.90;;;;;;6277578;22;20171;-91
2022/05/02 02:23:05;;;;;;;14.50;12.88;;;6.60;99.90;;;;;;6277605;22;20179;-91
2022/05/02 02:25:32;;;;;;;15.90;12.10;;;6.60;99.90;;;;;;6277191;22;20199;-91
2022/05/02 02:28:00;;;;;;;13.35;12.00;;;6.60;99.90;;;;;;6287000;22;20167;-91
2022/05/02 02:30:28;;;;;;;16.08;13.48;;;6.60;99.90;;;;;;6277305;22;20172;-92
2022/05/02 02:32:55;;;;;;;13.93;12.45;;;6.70;99.90;;;;;;6277508;22;20549;-91
2022/05/02 02:35:22;;;;;;;15.05;13.50;;;6.70;99.90;;;;;;6286911;22;20167;-92
2022/05/02 02:37:49;;;;;;;13.73;12.32;;;6.70;99.90;;;;;;6277264;22;20172;-92
2022/05/02 02:40:16;;;;;;;14.48;12.98;;;6.80;99.90;;;;;;6276889;22;20176;-91
2022/05/02 02:42:43;;;;;;;12.82;11.52;;;6.80;99.90;;;;;;6277548;22;20180;-92
2022/05/02 02:45:10;;;;;;;14.15;12.60;;;6.80;99.90;;;;;;6277593;22;20196;-92
2022/05/02 02:47:42;;;;;;;14.25;12.75;;;6.80;99.90;;;;;;6287707;22;20194;-92
2022/05/02 02:50:09;;;;;;;15.02;13.00;;;6.90;99.90;;;;;;6276730;22;20683;-92
2022/05/02 02:52:36;;;;;;;14.80;13.20;;;6.90;99.90;;;;;;6277925;22;20244;-92
2022/05/02 02:55:03;;;;;;;13.98;12.60;;;6.90;99.90;;;;;;6278405;22;20199;-92
2022/05/02 02:57:30;;;;;;;14.65;12.43;;;6.90;99.90;;;;;;6289158;22;20188;-92
2022/05/02 02:59:57;;;;;;;14.80;12.60;;;6.80;99.90;;;;;;6278723;22;20175;-91
2022/05/02 03:02:24;;;;;;;14.07;12.57;;;6.80;99.90;;;;;;6288074;22;20168;-91
2022/05/02 03:07:38;;;;;;;15.10;13.20;;;6.80;99.90;;;;;;6287813;22;20206;-91
2022/05/02 03:10:05;;;;;;;14.93;13.27;;;6.90;99.90;;;;;;6277260;22;20171;-91
2022/05/02 03:12:32;;;;;;;14.85;13.35;;;6.90;99.90;;;;;;6277330;22;20512;-91
2022/05/02 03:14:59;;;;;;;14.93;13.32;;;6.90;99.90;;;;;;6277406;22;20168;-92
2022/05/02 03:17:26;;;;;;;14.38;12.98;;;6.90;99.90;;;;;;6276922;22;20210;-92
2022/05/02 03:19:54;;;;;;;16.55;14.15;;;6.90;99.90;;;;;;6276781;22;20176;-91
2022/05/02 03:22:21;;;;;;;14.95;12.95;;;6.90;99.90;;;;;;6287556;22;20230;-92
2022/05/02 03:24:48;;;;;;;17.48;13.15;;;6.90;99.90;;;;;;6277368;22;20196;-92
2022/05/02 03:27:14;;;;;;;15.35;13.75;;;6.90;99.90;;;;;;6276868;22;20266;-91
2022/05/02 03:29:41;;;;;;;15.30;12.88;;;6.90;99.90;;;;;;6277617;22;20179;-91
2022/05/02 03:32:08;;;;;;;17.85;13.93;;;7.00;99.90;;;;;;6287222;22;20172;-92
2022/05/02 03:34:37;;;;;;;15.23;13.38;;;7.00;99.90;;;;;;6278204;22;20168;-92
2022/05/02 03:37:06;;;;;;;18.48;13.38;;;7.00;99.90;;;;;;6276603;22;20251;-92
2022/05/02 03:39:33;;;;;;;15.63;13.93;;;7.00;99.90;;;;;;6276634;22;20275;-92
2022/05/02 03:42:00;;;;;;;15.02;12.95;;;7.00;99.90;;;;;;6278005;22;20178;-93
2022/05/02 03:44:27;;;;;;;16.33;14.15;;;7.00;99.90;;;;;;6276635;22;20301;-91
2022/05/02 03:46:53;;;;;;;15.48;13.75;;;7.10;99.90;;;;;;6276339;22;20192;-92
2022/05/02 03:49:20;;;;;;;16.60;14.77;;;7.20;99.90;;;;;;6286295;22;20168;-92
2022/05/02 03:51:47;;;;;;;19.35;14.43;;;7.20;99.90;;;;;;6279533;22;20630;-92
2022/05/02 03:54:18;;;;;;;15.13;13.52;;;7.20;99.90;;;;;;6280699;22;20178;-94
2022/05/02 03:56:45;;;;;;;15.13;13.60;;;7.20;99.90;;;;;;6294771;22;20248;-93
2022/05/02 03:59:12;;;;;;;17.23;14.68;;;7.20;99.90;;;;;;6291683;22;20216;-92
2022/05/02 04:01:40;;;;;;;16.75;13.18;;;7.30;99.90;;;;;;6277276;22;20176;-93
2022/05/02 04:04:07;;;;;;;16.00;13.75;;;7.30;99.90;;;;;;6286491;22;20241;-92
2022/05/02 04:06:34;;;;;;;15.80;13.93;;;7.40;99.90;;;;;;6295657;22;20248;-92
2022/05/02 04:09:01;;;;;;;15.80;13.40;;;7.40;99.90;;;;;;6286708;22;20168;-92
2022/05/02 04:11:30;;;;;;;16.50;13.77;;;7.40;99.90;;;;;;6287731;22;20638;-93
2022/05/02 04:13:58;;;;;;;14.00;12.57;;;7.40;99.90;;;;;;6288633;22;20167;-93
2022/05/02 04:16:25;;;;;;;14.70;13.13;;;7.50;99.90;;;;;;6278496;22;20200;-93
2022/05/02 04:19:22;;;;;;;14.95;13.30;;;7.50;99.90;;;;;;6288597;22;20209;-93
2022/05/02 04:21:49;;;;;;;15.95;12.95;;;7.60;99.90;;;;;;6280780;22;20174;-93
2022/05/02 04:24:16;;;;;;;15.02;13.43;;;7.70;99.90;;;;;;6279186;22;20649;-92
2022/05/02 04:30:29;;;;;;;15.10;13.60;;;7.80;99.90;;;;;;6049880;23;20212;-94
2022/05/02 04:32:56;;;;;;;15.93;14.38;;;7.90;99.90;;;;;;6247888;22;20225;-92
2022/05/02 04:35:23;;;;;;;15.20;13.60;;;7.90;99.90;;;;;;6288383;22;20199;-92
2022/05/02 04:37:49;;;;;;;18.00;14.65;;;8.00;99.90;;;;;;6287950;22;20170;-92
2022/05/02 04:40:16;;;;;;;14.57;12.65;;;8.10;99.90;;;;;;6278543;22;20172;-93
2022/05/02 04:42:43;;;;;;;15.32;13.50;;;8.20;99.90;;;;;;6288907;22;20164;-93
2022/05/02 04:45:11;;;;;;;16.17;14.48;;;8.30;99.90;;;;;;6287890;22;20207;-93
2022/05/02 04:47:39;;;;;;;14.02;12.63;;;8.30;99.90;;;;;;6289228;22;20198;-92
2022/05/02 04:50:07;;;;;;;14.30;12.77;;;8.30;99.90;;;;;;6288519;22;20451;-92
2022/05/02 04:52:34;;;;;;;14.57;13.02;;;8.40;99.90;;;;;;6278042;22;20175;-92
2022/05/02 04:55:00;;;;;;;14.50;13.00;;;8.50;99.90;;;;;;6278139;22;20167;-92
2022/05/02 04:57:27;;;;;;;14.70;13.20;;;8.50;99.90;;;;;;6278656;22;20191;-93
2022/05/02 04:59:54;;;;;;;12.95;11.52;;;8.60;99.90;;;;;;6278633;22;20263;-92
2022/05/02 05:02:21;;;;;;;14.75;13.27;;;8.70;99.90;;;;;;6288618;22;20164;-93
2022/05/02 05:04:49;;;;;;;14.60;13.10;;;8.70;99.90;;;;;;6279672;22;20191;-93
2022/05/02 05:07:16;;;;;;;15.65;13.00;;;8.70;99.90;;;;;;6288860;22;20187;-93
2022/05/02 05:09:43;;;;;;;14.80;13.30;;;8.80;99.90;;;;;;6281020;22;20206;-92
2022/05/02 05:12:17;;;;;;;14.20;12.23;;;8.80;99.90;;;;;;6279206;22;20215;-93
2022/05/02 05:17:49;;;;;;;13.15;11.85;;;8.80;99.90;;;;;;6230418;22;20199;-93
2022/05/02 05:20:25;;;;;;;13.25;11.90;;;8.90;99.90;;;;;;6280916;22;20160;-92
2022/05/02 05:23:10;;;;;;;12.90;11.60;;;8.80;99.90;;;;;;6282010;22;20178;-91
2022/05/02 05:25:50;;;;;;;14.38;12.75;;;8.90;99.90;;;;;;6279019;22;20242;-69
2022/05/02 05:28:52;;;;;;;13.05;11.32;;;8.90;99.90;;;;;;6275500;22;20815;-70
2022/05/02 05:31:30;;;;;;;14.80;13.20;;;9.00;99.90;;;;;;6275775;22;20163;-70
2022/05/02 05:34:08;;;;;;;13.40;12.10;;;9.00;99.90;;;;;;6275282;22;20164;-69
2022/05/02 05:37:14;;;;;;;16.08;14.15;;;9.10;99.90;;;;;;6274978;22;20161;-68
2022/05/02 05:39:49;;;;;;;14.57;13.15;;;9.20;99.90;;;;;;6274228;22;20167;-69
2022/05/02 05:42:20;;;;;;;17.00;14.20;;;9.20;99.90;;;;;;6275634;22;20163;-69
2022/05/02 05:44:59;;;;;;;15.35;13.50;;;9.30;99.90;;;;;;6275297;22;20160;-68
2022/05/02 05:47:48;;;;;;;14.60;13.02;;;9.40;99.90;;;;;;6275026;22;20202;-69
2022/05/02 05:50:22;;;;;;;15.57;13.93;;;9.50;99.90;;;;;;6274204;22;20182;-69
2022/05/02 05:53:03;;;;;;;19.05;15.27;;;9.50;99.90;;;;;;6275087;22;20487;-69
2022/05/02 05:55:38;;;;;;;18.20;16.30;;;9.60;99.90;;;;;;6275159;22;20156;-70
2022/05/02 05:58:12;;;;;;;19.10;16.45;;;9.70;99.90;;;;;;6274521;22;20602;-68
2022/05/02 06:00:44;;;;;;;18.10;16.23;;;9.70;99.90;;;;;;6275213;22;20202;-69
2022/05/02 06:03:15;;;;;;;18.60;16.70;;;9.80;99.90;;;;;;6275254;22;20159;-68
2022/05/02 06:05:44;;;;;;;19.25;15.70;;;9.90;99.90;;;;;;6274908;22;20180;-68
2022/05/02 06:08:16;;;;;;;16.85;15.20;;;10.00;99.90;;;;;;6274123;22;20196;-69
2022/05/02 06:10:43;;;;;;;18.13;16.00;;;10.00;99.90;;;;;;6275172;22;20165;-69
2022/05/02 06:13:10;;;;;;;19.42;16.27;;;10.10;99.90;;;;;;6275147;22;20175;-69
2022/05/02 06:18:30;;;;;;;17.77;15.98;;;10.30;99.90;;;;;;6274420;22;20267;-69
2022/05/02 06:20:59;;;;;;;18.75;16.75;;;10.40;99.90;;;;;;6275064;22;20167;-69
2022/05/02 06:23:30;;;;;;;21.15;17.70;;;10.50;99.90;;;;;;6274945;22;20585;-69
2022/05/02 06:25:57;;;;;;;20.60;17.48;;;10.60;99.90;;;;;;6274334;22;20199;-69
2022/05/02 06:28:29;;;;;;;18.42;16.70;;;10.70;99.90;;;;;;6274319;22;20222;-68
2022/05/02 06:31:00;;;;;;;20.35;17.55;;;10.70;99.90;;;;;;6275398;22;20163;-69
2022/05/02 06:33:27;;;;;;;19.92;17.27;;;10.80;99.90;;;;;;6274801;22;20709;-69
2022/05/02 06:36:12;;;;;;;19.70;17.27;;;11.00;99.90;;;;;;6275214;22;20567;-69
2022/05/02 06:38:51;;;;;;;19.20;17.20;;;11.00;99.90;;;;;;6274102;22;20215;-69
2022/05/02 06:41:32;;;;;;;18.33;16.40;;;11.10;99.90;;;;;;6274996;22;20156;-68
2022/05/02 06:44:07;;;;;;;17.70;15.82;;;11.20;99.90;;;;;;6274879;22;20211;-69
2022/05/02 06:46:38;;;;;;;19.70;17.70;;;11.30;99.90;;;;;;6274822;22;20184;-69
2022/05/02 06:49:12;;;;;;;17.75;16.05;;;11.40;99.90;;;;;;6273825;22;20688;-69
2022/05/02 06:51:41;;;;;;;19.13;17.15;;;11.50;99.90;;;;;;6274777;22;20476;-69
2022/05/02 06:54:24;;;;;;;17.70;15.80;;;11.50;99.90;;;;;;6274799;22;20171;-69
2022/05/02 06:56:56;;;;;;;19.20;17.27;;;11.60;99.90;;;;;;6274861;22;20152;-70
2022/05/02 06:59:41;;;;;;;18.60;16.60;;;11.80;99.90;;;;;;6274364;22;20549;-70
2022/05/02 07:02:29;;;;;;;18.95;16.95;;;11.90;99.90;;;;;;6274950;22;20631;-68
2022/05/02 07:04:56;;;;;;;19.05;17.15;;;12.00;99.90;;;;;;6274943;22;20164;-69
2022/05/02 07:07:37;;;;;;;19.27;16.70;;;12.10;99.90;;;;;;6274566;22;20207;-69
2022/05/02 07:10:07;;;;;;;20.47;16.33;;;12.20;99.90;;;;;;6274110;22;20160;-70
2022/05/02 07:12:40;;;;;;;17.10;15.40;;;12.40;99.90;;;;;;6274627;22;20405;-68
2022/05/02 07:15:13;;;;;;;18.60;16.40;;;12.50;99.90;;;;;;6274310;22;20891;-68
2022/05/02 07:17:57;;;;;;;18.80;17.00;;;12.60;99.90;;;;;;6274362;22;20195;-69
2022/05/02 07:20:28;;;;;;;18.30;16.40;;;12.70;99.90;;;;;;6274639;22;20403;-70
2022/05/02 07:23:12;;;;;;;17.80;16.10;;;12.70;99.90;;;;;;6274366;22;20453;-69
2022/05/02 07:25:45;;;;;;;17.20;15.33;;;12.80;99.90;;;;;;6273969;22;20426;-69
2022/05/02 07:28:23;;;;;;;17.23;15.50;;;13.00;99.90;;;;;;6273701;22;20488;-69
2022/05/02 07:30:51;;;;;;;19.43;15.50;;;13.00;99.90;;;;;;6274388;22;20406;-69
2022/05/02 07:33:20;;;;;;;17.00;15.27;;;13.10;99.90;;;;;;6274211;22;20420;-68
2022/05/02 07:35:50;;;;;;;17.37;15.37;;;13.10;99.90;;;;;;6273703;22;20425;-69
2022/05/02 07:38:19;;;;;;;16.40;14.60;;;13.10;99.90;;;;;;6273595;22;20492;-69
2022/05/02 07:43:33;;;;;;;17.40;15.60;;;13.50;99.90;;;;;;6272490;22;20406;-69
2022/05/02 07:46:02;;;;;;;18.90;14.53;;;13.60;99.90;;;;;;6273774;22;20938;-69
2022/05/02 07:48:32;;;;;;;17.27;15.17;;;13.70;99.90;;;;;;6273462;22;20445;-69
2022/05/02 07:51:00;;;;;;;17.77;15.60;;;13.80;99.90;;;;;;6274074;22;20457;-68
2022/05/02 07:53:28;;;;;;;15.60;14.10;;;13.90;99.90;;;;;;6274304;22;20786;-69
2022/05/02 07:55:57;;;;;;;16.03;14.50;;;14.00;99.90;;;;;;6273996;22;20807;-69
2022/05/02 07:58:25;;;;;;;15.90;14.33;;;14.20;99.90;;;;;;6273374;22;20438;-68
2022/05/02 08:00:52;;;;;;;15.57;14.00;;;14.40;99.90;;;;;;6274076;22;20423;-68
2022/05/02 08:03:22;;;;;;;16.80;13.77;;;14.60;99.90;;;;;;6274271;22;20426;-69
2022/05/02 08:05:52;;;;;;;17.67;14.33;;;14.80;99.90;;;;;;6274019;22;20445;-69
2022/05/02 08:08:31;;;;;;;15.73;14.07;;;14.60;99.90;;;;;;6273383;22;20504;-69
2022/05/02 08:11:09;;;;;;;15.50;14.00;;;14.60;99.90;;;;;;6274127;22;20422;-69
2022/05/02 08:13:44;;;;;;;14.60;13.03;;;14.80;99.90;;;;;;6273648;22;20414;-69
2022/05/02 08:16:21;;;;;;;14.67;13.27;;;15.10;99.90;;;;;;6270590;22;20412;-91
2022/05/02 08:19:04;;;;;;;15.03;13.63;;;15.30;99.90;;;;;;6285735;22;20911;-90
2022/05/02 08:21:38;;;;;;;13.80;12.50;;;15.40;99.90;;;;;;6277618;22;20406;-91
2022/05/02 08:27:38;;;;;;;14.53;13.07;;;15.60;99.90;;;;;;6287140;22;20493;-91
2022/05/02 08:30:08;;;;;;;14.27;12.77;;;15.70;99.90;;;;;;6287400;22;20885;-90
2022/05/02 08:32:43;;;;;;;13.70;12.43;;;15.70;99.90;;;;;;6286822;22;20415;-92
2022/05/02 08:35:14;;;;;;;16.07;13.60;;;16.00;99.90;;;;;;6287945;22;20414;-90
2022/05/02 08:37:59;;;;;;;12.53;11.23;;;16.50;99.90;;;;;;6278707;22;20468;-92
2022/05/02 08:40:48;;;;;;;13.63;12.23;;;16.90;99.90;;;;;;6276324;22;20399;-91
2022/05/02 08:44:08;;;;;;;;;;;;;;;;;;;;;
2022/05/02 08:54:24;;;;;;;;;;;;;;;;;;;;;
2022/05/02 08:57:23;;;;;;;12.67;10.63;;;17.70;99.90;;;;;;6054283;23;20980;-91
2022/05/02 09:00:37;;;;;;;10.90;9.90;;;18.10;99.20;;;;;;6164198;23;20421;-90
2022/05/02 09:10:09;;;;;;;9.90;8.90;;;20.00;95.10;;;;;;6131388;23;20449;-91
2022/05/02 09:13:17;;;;;;;9.17;8.33;;;20.30;96.50;;;;;;6270110;22;20425;-91
2022/05/02 09:16:31;;;;;;;;;;;;;;;;;;;;;
2022/05/02 09:19:47;;;;;;;9.40;8.47;;;20.30;95.00;;;;;;6287529;22;20407;-90
2022/05/02 09:22:41;;;;;;;9.80;9.00;;;19.70;95.40;;;;;;6227293;22;20429;-90
2022/05/02 09:25:10;;;;;;;9.27;8.47;;;19.50;95.70;;;;;;6274342;22;20418;-91
2022/05/02 09:27:47;;;;;;;8.63;7.83;;;19.20;96.00;;;;;;6288188;22;20434;-91
2022/05/02 09:30:40;;;;;;;9.70;8.70;;;18.70;96.40;;;;;;6287994;22;20486;-91
2022/05/02 09:33:45;;;;;;;9.87;8.80;;;18.20;96.80;;;;;;6278300;22;20873;-90
2022/05/02 09:36:25;;;;;;;9.23;8.33;;;18.30;97.10;;;;;;6288336;22;20449;-91
2022/05/02 09:39:01;;;;;;;8.47;7.67;;;19.50;96.90;;;;;;6287712;22;20414;-91
2022/05/02 09:42:01;;;;;;;9.13;8.33;;;20.40;95.30;;;;;;6287777;22;20417;-91
2022/05/02 09:51:24;;;;;;;8.67;7.77;;;19.50;94.30;;;;;;6287911;22;20390;-91
2022/05/02 09:54:02;;;;;;;7.10;6.50;;;18.90;94.40;;;;;;6278602;22;20402;-91
2022/05/02 09:56:39;;;;;;;7.57;6.80;;;19.20;95.00;;;;;;6277712;22;20450;-91
2022/05/02 09:59:09;;;;;;;7.43;6.67;;;20.30;93.50;;;;;;6280146;22;20452;-91
2022/05/02 10:01:40;;;;;;;8.00;7.40;;;21.20;93.80;;;;;;6278680;22;20755;-91
2022/05/02 10:04:18;;;;;;;10.20;9.30;;;22.20;93.40;;;;;;6295540;22;20394;-92
2022/05/02 10:06:50;;;;;;;8.80;8.00;;;22.30;92.20;;;;;;6313786;22;20429;-93
2022/05/02 10:09:45;;;;;;;8.97;7.93;;;21.50;92.30;;;;;;6300316;22;20446;-91
2022/05/02 10:12:22;;;;;;;7.07;6.47;;;21.00;93.10;;;;;;6276116;22;20427;-92
2022/05/02 10:14:51;;;;;;;6.87;6.13;;;20.90;92.00;;;;;;6280785;22;20406;-92
2022/05/02 10:17:32;;;;;;;7.50;6.90;;;21.70;93.30;;;;;;6291638;22;20446;-91
2022/05/02 10:20:18;;;;;;;6.97;6.37;;;22.60;92.30;;;;;;6292632;22;20409;-93
2022/05/02 10:22:58;;;;;;;6.83;6.20;;;23.60;89.90;;;;;;6294705;22;20414;-91
2022/05/02 10:25:36;;;;;;;6.60;6.00;;;23.60;87.30;;;;;;6297031;22;20465;-91
2022/05/02 10:28:09;;;;;;;6.97;6.40;;;23.40;88.00;;;;;;6289545;22;20937;-91
2022/05/02 10:30:53;;;;;;;6.53;5.93;;;22.80;87.50;;;;;;6288414;22;20410;-90
2022/05/02 10:33:31;;;;;;;7.33;6.73;;;22.60;90.90;;;;;;6288327;22;20414;-90
2022/05/02 10:36:00;;;;;;;9.10;7.60;;;23.30;91.20;;;;;;6288542;22;20786;-92
2022/05/02 10:38:30;;;;;;;6.43;5.93;;;23.60;90.10;;;;;;6291104;22;20411;-90
2022/05/02 10:41:08;;;;;;;6.50;6.00;;;24.40;90.60;;;;;;6287888;22;20475;-91
2022/05/02 10:43:37;;;;;;;7.90;7.30;;;24.90;87.30;;;;;;6279057;22;20468;-91
2022/05/02 10:46:04;;;;;;;7.17;6.03;;;25.30;85.90;;;;;;6289720;22;20422;-91
2022/05/02 10:48:41;;;;;;;7.17;6.53;;;25.40;84.50;;;;;;6289097;22;20419;-91
2022/05/02 10:51:13;;;;;;;7.20;6.70;;;24.90;82.00;;;;;;6289503;22;20729;-91
2022/05/02 10:53:59;;;;;;;7.67;7.07;;;24.00;85.50;;;;;;6290767;22;20412;-92
2022/05/02 10:56:35;;;;;;;7.20;6.50;;;23.90;82.30;;;;;;6296028;22;20537;-91
2022/05/02 10:59:04;;;;;;;6.30;5.80;;;23.50;82.70;;;;;;6284330;22;20790;-91
2022/05/02 11:02:06;;;;;;;6.60;6.00;;;23.20;85.70;;;;;;6291102;22;20412;-91
2022/05/02 11:05:06;;;;;;;6.80;6.20;;;22.70;88.10;;;;;;6276547;22;20426;-91
2022/05/02 11:07:46;;;;;;;6.20;5.60;;;22.60;88.50;;;;;;6292781;22;20521;-92
2022/05/02 11:10:20;;;;;;;7.20;6.60;;;23.10;86.70;;;;;;6283607;22;20406;-91
2022/05/02 11:12:52;;;;;;;6.83;5.60;;;24.00;85.60;;;;;;6301154;22;20480;-93
2022/05/02 11:15:25;;;;;;;6.60;6.10;;;25.00;85.60;;;;;;6311974;22;20438;-92
2022/05/02 11:18:04;;;;;;;6.83;6.23;;;25.60;79.40;;;;;;6292357;22;20446;-92
2022/05/02 11:20:42;;;;;;;8.20;6.90;;;25.30;78.20;;;;;;6294489;22;20418;-91
2022/05/02 11:23:25;;;;;;;5.73;5.23;;;24.50;81.20;;;;;;6285858;22;20927;-91
2022/05/02 11:26:09;;;;;;;5.37;4.97;;;23.20;81.50;;;;;;6285289;22;20400;-91
2022/05/02 11:28:49;;;;;;;5.90;5.40;;;23.20;83.40;;;;;;6293673;22;20449;-91
2022/05/02 11:31:20;;;;;;;5.97;5.47;;;23.60;80.20;;;;;;6296045;22;20418;-91
2022/05/02 11:33:57;;;;;;;5.77;5.27;;;24.00;80.90;;;;;;6292700;22;20478;-92
2022/05/02 11:36:25;;;;;;;5.97;5.47;;;24.00;79.80;;;;;;6309414;22;20438;-92
2022/05/02 11:38:56;;;;;;;6.17;5.67;;;24.60;80.90;;;;;;6288231;22;20410;-91
2022/05/02 11:41:27;;;;;;;6.67;6.10;;;24.80;82.40;;;;;;6293811;22;20528;-91
2022/05/02 11:44:06;;;;;;;7.03;6.40;;;25.10;78.30;;;;;;6288039;22;20951;-92
2022/05/02 11:46:40;;;;;;;5.90;5.40;;;24.40;78.20;;;;;;6287696;22;20419;-91
2022/05/02 11:49:14;;;;;;;6.40;5.90;;;24.10;78.40;;;;;;6287215;22;20421;-92
2022/05/02 11:51:45;;;;;;;5.40;4.90;;;23.90;79.30;;;;;;6278572;22;20400;-92
2022/05/02 11:54:31;;;;;;;5.17;4.77;;;24.00;83.70;;;;;;6276805;22;20893;-92
2022/05/02 11:57:07;;;;;;;5.53;5.03;;;24.60;81.70;;;;;;6276792;22;20450;-92
2022/05/02 11:59:43;;;;;;;5.10;4.70;;;25.30;80.30;;;;;;6277205;22;20410;-91
2022/05/02 12:02:28;;;;;;;6.00;5.27;;;26.00;80.20;;;;;;6277943;22;20735;-92
2022/05/02 12:04:57;;;;;;;6.87;5.17;;;26.50;80.60;;;;;;6287243;22;20517;-90
2022/05/02 12:07:32;;;;;;;6.90;6.20;;;27.00;81.60;;;;;;6276703;22;20436;-91
2022/05/02 12:10:05;;;;;;;6.37;5.80;;;27.30;78.90;;;;;;6286547;22;20500;-91
2022/05/02 12:12:34;;;;;;;5.70;5.20;;;27.50;77.70;;;;;;6277051;22;20747;-92
2022/05/02 12:15:03;;;;;;;6.13;5.47;;;27.60;78.80;;;;;;6286744;22;20988;-92
2022/05/02 12:17:29;;;;;;;5.27;4.77;;;27.00;78.00;;;;;;6276214;22;20461;-92
2022/05/02 12:19:57;;;;;;;5.60;5.10;;;26.50;78.00;;;;;;6287010;22;20418;-89
2022/05/02 12:22:27;;;;;;;5.33;4.93;;;26.50;77.40;;;;;;6287126;22;20891;-91
2022/05/02 12:25:03;;;;;;;6.47;5.70;;;25.60;79.20;;;;;;6287749;22;20465;-91
2022/05/02 12:27:31;;;;;;;7.23;6.00;;;24.90;79.50;;;;;;6287870;22;20438;-91
2022/05/02 12:30:02;;;;;;;5.90;5.40;;;24.40;82.90;;;;;;6286874;22;20421;-90
2022/05/02 12:32:31;;;;;;;5.30;4.80;;;24.90;81.50;;;;;;6288858;22;20605;-91
2022/05/02 12:34:59;;;;;;;6.17;5.17;;;25.00;81.50;;;;;;6288208;22;20901;-91
2022/05/02 12:37:32;;;;;;;5.80;5.20;;;25.30;80.20;;;;;;6276900;22;20447;-91
2022/05/02 12:40:06;;;;;;;5.93;5.43;;;24.70;78.80;;;;;;6288369;22;20447;-91
2022/05/02 12:42:41;;;;;;;5.20;4.70;;;24.00;79.20;;;;;;6288968;22;20467;-91
2022/05/02 12:45:12;;;;;;;5.40;4.90;;;23.70;81.20;;;;;;6287082;22;20421;-90
2022/05/02 12:47:46;;;;;;;4.83;4.43;;;23.50;80.70;;;;;;6286348;22;20445;-91
2022/05/02 12:50:16;;;;;;;5.97;5.37;;;23.20;80.30;;;;;;6288445;22;20469;-90
2022/05/02 12:52:45;;;;;;;5.33;4.73;;;23.10;80.60;;;;;;6288659;22;20429;-91
2022/05/02 12:55:12;;;;;;;5.83;4.80;;;23.40;82.60;;;;;;6288346;22;20429;-91
2022/05/02 13:00:32;;;;;;;5.07;4.67;;;24.40;81.20;;;;;;6290252;22;20459;-91
2022/05/02 13:03:05;;;;;;;4.77;4.37;;;24.70;80.00;;;;;;6291395;22;20425;-91
2022/05/02 13:05:34;;;;;;;5.43;4.93;;;24.70;81.10;;;;;;6287075;22;20418;-91
2022/05/02 13:08:10;;;;;;;4.47;4.07;;;24.90;79.10;;;;;;6286177;22;20466;-90
2022/05/02 13:10:39;;;;;;;4.80;4.50;;;24.60;80.50;;;;;;6287102;22;20422;-92
2022/05/02 13:13:08;;;;;;;5.17;4.77;;;24.30;79.00;;;;;;6287181;22;20486;-91
2022/05/02 13:15:41;;;;;;;4.87;4.47;;;23.80;81.40;;;;;;6286956;22;20422;-91
2022/05/02 13:18:09;;;;;;;5.57;4.67;;;23.40;81.40;;;;;;6299717;22;20678;-89
2022/05/02 13:20:37;;;;;;;5.43;4.93;;;23.20;82.50;;;;;;6312827;22;20414;-92
2022/05/02 13:23:07;;;;;;;3.90;3.60;;;23.10;83.60;;;;;;6313333;22;20487;-92
2022/05/02 13:26:05;;;;;;;4.70;4.30;;;23.50;85.70;;;;;;6311691;22;20418;-91
2022/05/02 13:28:43;;;;;;;5.20;4.80;;;24.00;83.70;;;;;;6313755;22;20478;-92
2022/05/02 13:31:19;;;;;;;4.03;3.73;;;24.80;82.10;;;;;;6303856;22;20462;-93
2022/05/02 13:33:55;;;;;;;6.03;4.93;;;25.60;81.70;;;;;;6304892;22;20402;-93
2022/05/02 13:36:25;;;;;;;4.90;4.50;;;25.80;78.10;;;;;;6315720;22;20434;-95
2022/05/02 13:39:07;;;;;;;4.47;4.07;;;25.50;78.80;;;;;;6315597;22;20476;-94
2022/05/02 13:41:42;;;;;;;6.93;4.10;;;25.10;79.00;;;;;;6300186;22;20406;-92
2022/05/02 13:44:21;;;;;;;5.10;4.60;;;24.90;78.90;;;;;;6296404;22;20414;-92
2022/05/02 13:47:00;;;;;;;5.50;5.00;;;24.60;77.30;;;;;;6293447;22;20441;-91
2022/05/02 13:49:46;;;;;;;4.97;4.67;;;24.10;77.80;;;;;;6294368;22;20414;-92
2022/05/02 13:52:28;;;;;;;4.43;4.13;;;23.50;79.00;;;;;;6310340;22;20408;-93
2022/05/02 13:54:55;;;;;;;4.63;4.20;;;23.30;82.30;;;;;;6311135;22;20417;-92
2022/05/02 13:57:32;;;;;;;3.93;3.63;;;23.40;83.30;;;;;;6288027;22;20525;-91